createdAt,value
2023-05-05T00:01:01.161Z,11.50
2023-05-05T00:03:29.374Z,11.10
2023-05-05T00:05:58.109Z,11.90
2023-05-05T00:08:25.902Z,12.60
2023-05-05T00:10:54.157Z,12.30
2023-05-05T00:13:22.143Z,12.50
2023-05-05T00:15:50.577Z,13.70
2023-05-05T00:18:18.635Z,11.90
2023-05-05T00:20:47.390Z,11.60
2023-05-05T00:23:16.035Z,10.40
2023-05-05T00:25:44.047Z,11.00
2023-05-05T00:28:14.054Z,10.10
2023-05-05T00:30:41.845Z,10.40
2023-05-05T00:33:09.707Z,10.00
2023-05-05T00:35:37.423Z,10.30
2023-05-05T00:38:05.310Z,9.80
2023-05-05T00:40:33.206Z,10.80
2023-05-05T00:43:01.072Z,8.80
2023-05-05T00:45:28.893Z,8.50
2023-05-05T00:47:57.748Z,8.30
2023-05-05T00:50:27.135Z,9.40
2023-05-05T00:52:59.031Z,8.60
2023-05-05T00:55:28.228Z,7.60
2023-05-05T00:57:57.245Z,9.30
2023-05-05T01:00:25.202Z,9.00
2023-05-05T01:02:53.321Z,8.50
2023-05-05T01:05:22.164Z,8.00
2023-05-05T01:08:05.379Z,8.50
2023-05-05T01:10:38.708Z,7.80
2023-05-05T01:13:18.046Z,8.00
2023-05-05T01:15:52.488Z,8.00
2023-05-05T01:18:27.306Z,7.80
2023-05-05T01:21:15.441Z,7.30
2023-05-05T01:24:04.826Z,6.80
2023-05-05T01:26:38.797Z,8.40
2023-05-05T01:29:17.141Z,7.60
2023-05-05T01:31:53.545Z,7.90
2023-05-05T01:34:24.854Z,7.20
2023-05-05T01:36:58.597Z,7.40
2023-05-05T01:39:29.399Z,7.70
2023-05-05T01:41:59.013Z,8.10
2023-05-05T01:44:27.884Z,7.70
2023-05-05T01:46:55.875Z,8.10
2023-05-05T01:49:27.182Z,7.80
2023-05-05T01:51:56.441Z,7.70
2023-05-05T01:54:24.650Z,6.70
2023-05-05T01:56:53.390Z,7.60
2023-05-05T01:59:21.388Z,7.20
2023-05-05T02:01:50.092Z,7.20
2023-05-05T02:04:18.613Z,7.50
2023-05-05T02:06:47.635Z,6.90
2023-05-05T02:09:16.160Z,6.80
2023-05-05T02:11:44.282Z,7.10
2023-05-05T02:14:12.734Z,7.00
2023-05-05T02:16:41.601Z,7.30
2023-05-05T02:19:10.087Z,7.40
2023-05-05T02:21:37.976Z,7.50
2023-05-05T02:24:05.997Z,6.70
2023-05-05T02:26:39.165Z,6.30
2023-05-05T02:29:09.448Z,6.90
2023-05-05T02:31:44.118Z,7.40
2023-05-05T02:34:13.549Z,7.10
2023-05-05T02:36:42.989Z,6.80
2023-05-05T02:39:18.979Z,6.30
2023-05-05T02:41:48.778Z,6.00
2023-05-05T02:44:17.134Z,6.50
2023-05-05T02:46:45.185Z,5.90
2023-05-05T02:49:12.978Z,6.30
2023-05-05T02:51:40.921Z,6.40
2023-05-05T02:54:08.662Z,5.90
2023-05-05T02:56:49.765Z,5.50
2023-05-05T02:59:20.235Z,5.80
2023-05-05T03:01:57.464Z,5.20
2023-05-05T03:05:03.931Z,5.60
2023-05-05T03:07:34.700Z,5.40
2023-05-05T03:10:10.209Z,5.20
2023-05-05T03:12:46.083Z,5.30
2023-05-05T03:15:14.346Z,5.30
2023-05-05T03:17:43.224Z,5.50
2023-05-05T03:20:12.401Z,5.30
2023-05-05T03:22:40.313Z,5.10
2023-05-05T03:25:08.479Z,4.60
2023-05-05T03:27:36.338Z,4.90
2023-05-05T03:30:04.321Z,4.90
2023-05-05T03:32:32.366Z,4.70
2023-05-05T03:35:00.162Z,4.80
2023-05-05T03:37:28.053Z,4.60
2023-05-05T03:39:55.837Z,4.70
2023-05-05T03:42:26.324Z,5.10
2023-05-05T03:44:54.055Z,4.50
2023-05-05T03:47:24.653Z,4.60
2023-05-05T03:49:52.556Z,4.50
2023-05-05T03:52:20.325Z,5.30
2023-05-05T03:54:48.130Z,4.20
2023-05-05T03:57:16.738Z,4.80
2023-05-05T03:59:44.499Z,4.90
2023-05-05T04:02:12.260Z,4.70
2023-05-05T04:04:40.155Z,4.70
2023-05-05T04:07:07.956Z,5.00
2023-05-05T04:09:35.811Z,4.40
2023-05-05T04:12:03.553Z,5.40
2023-05-05T04:14:31.300Z,5.10
2023-05-05T04:16:59.203Z,5.20
2023-05-05T04:19:26.983Z,4.00
2023-05-05T04:21:54.751Z,4.70
2023-05-05T04:24:24.855Z,4.30
2023-05-05T04:26:52.798Z,4.60
2023-05-05T04:29:20.691Z,5.30
2023-05-05T04:31:48.723Z,4.90
2023-05-05T04:34:16.536Z,4.30
2023-05-05T04:36:44.960Z,4.20
2023-05-05T04:39:12.861Z,4.70
2023-05-05T04:41:40.704Z,5.40
2023-05-05T04:44:08.423Z,3.90
2023-05-05T04:46:36.292Z,4.10
2023-05-05T04:49:05.858Z,4.10
2023-05-05T04:51:37.061Z,3.90
2023-05-05T04:54:04.837Z,4.20
2023-05-05T04:56:32.638Z,4.20
2023-05-05T04:59:00.631Z,4.90
2023-05-05T05:01:28.503Z,4.90
2023-05-05T05:03:58.965Z,4.60
2023-05-05T05:06:27.309Z,3.50
2023-05-05T05:08:55.347Z,3.60
2023-05-05T05:11:23.398Z,4.70
2023-05-05T05:13:51.108Z,4.50
2023-05-05T05:16:19.516Z,4.60
2023-05-05T05:18:47.366Z,4.50
2023-05-05T05:21:15.113Z,4.60
2023-05-05T05:23:42.833Z,4.40
2023-05-05T05:26:11.112Z,3.80
2023-05-05T05:28:38.801Z,3.70
2023-05-05T05:31:06.913Z,3.60
2023-05-05T05:33:34.655Z,4.90
2023-05-05T05:36:02.828Z,4.00
2023-05-05T05:38:30.916Z,4.20
2023-05-05T05:40:59.560Z,4.80
2023-05-05T05:43:30.291Z,4.80
2023-05-05T05:45:59.033Z,3.80
2023-05-05T05:48:28.810Z,4.20
2023-05-05T05:50:57.140Z,4.20
2023-05-05T05:53:25.029Z,3.80
2023-05-05T05:55:52.859Z,4.10
2023-05-05T05:58:20.893Z,4.60
2023-05-05T06:00:49.062Z,3.80
2023-05-05T06:03:17.421Z,3.90
2023-05-05T06:05:46.436Z,3.80
2023-05-05T06:08:14.183Z,3.60
2023-05-05T06:10:42.152Z,4.20
2023-05-05T06:13:10.200Z,4.10
2023-05-05T06:15:38.074Z,3.50
2023-05-05T06:18:06.197Z,4.50
2023-05-05T06:20:33.941Z,3.90
2023-05-05T06:23:01.782Z,4.00
2023-05-05T06:25:29.673Z,3.90
2023-05-05T06:27:57.423Z,3.60
2023-05-05T06:30:26.220Z,4.40
2023-05-05T06:32:54.392Z,3.80
2023-05-05T06:35:22.468Z,3.50
2023-05-05T06:38:40.679Z,4.00
2023-05-05T06:41:08.547Z,3.40
2023-05-05T06:43:36.432Z,4.40
2023-05-05T06:46:04.376Z,4.80
2023-05-05T06:48:32.233Z,4.80
2023-05-05T06:51:00.118Z,3.80
2023-05-05T06:53:27.920Z,3.60
2023-05-05T06:55:55.814Z,4.00
2023-05-05T06:58:23.689Z,4.20
2023-05-05T07:00:51.544Z,3.60
2023-05-05T07:03:19.494Z,3.90
2023-05-05T07:05:47.639Z,4.20
2023-05-05T07:08:15.445Z,4.40
2023-05-05T07:10:43.196Z,3.80
2023-05-05T07:13:11.204Z,4.90
2023-05-05T07:15:46.267Z,4.00
2023-05-05T07:18:14.582Z,3.90
2023-05-05T07:20:42.806Z,4.20
2023-05-05T07:23:11.311Z,4.30
2023-05-05T07:25:39.198Z,4.70
2023-05-05T07:28:07.060Z,4.20
2023-05-05T07:30:43.484Z,4.20
2023-05-05T07:33:11.374Z,3.80
2023-05-05T07:35:39.238Z,3.60
2023-05-05T07:38:08.590Z,4.20
2023-05-05T07:40:36.590Z,4.30
2023-05-05T07:43:05.046Z,4.50
2023-05-05T07:45:33.656Z,3.90
2023-05-05T07:48:01.407Z,4.40
2023-05-05T07:50:29.116Z,4.60
2023-05-05T07:53:06.197Z,4.40
2023-05-05T07:55:41.482Z,4.50
2023-05-05T07:58:12.261Z,4.10
2023-05-05T08:00:40.045Z,4.00
2023-05-05T08:03:11.343Z,4.40
2023-05-05T08:05:40.332Z,4.50
2023-05-05T08:08:08.189Z,4.30
2023-05-05T08:10:36.091Z,4.80
2023-05-05T08:13:03.933Z,4.20
2023-05-05T08:15:31.816Z,4.80
2023-05-05T08:17:59.791Z,4.90
2023-05-05T08:20:28.548Z,4.20
2023-05-05T08:22:56.424Z,4.30
2023-05-05T08:25:24.716Z,4.70
2023-05-05T08:27:52.569Z,5.10
2023-05-05T08:30:21.833Z,4.30
2023-05-05T08:32:49.810Z,4.50
2023-05-05T08:35:17.960Z,5.40
2023-05-05T08:37:46.199Z,4.70
2023-05-05T08:40:14.704Z,4.10
2023-05-05T08:42:42.837Z,4.80
2023-05-05T08:45:11.444Z,5.40
2023-05-05T08:47:39.691Z,4.30
2023-05-05T08:50:10.008Z,4.60
2023-05-05T08:52:45.261Z,4.10
2023-05-05T08:55:15.698Z,4.00
2023-05-05T08:57:51.765Z,4.70
2023-05-05T09:00:19.982Z,4.70
2023-05-05T09:02:48.462Z,4.40
2023-05-05T09:05:19.636Z,4.30
2023-05-05T09:07:47.534Z,4.40
2023-05-05T09:10:15.661Z,4.30
2023-05-05T09:12:43.798Z,4.40
2023-05-05T09:15:12.998Z,4.50
2023-05-05T09:17:41.118Z,5.40
2023-05-05T09:20:13.194Z,4.50
2023-05-05T09:22:42.439Z,4.60
2023-05-05T09:25:11.971Z,4.50
2023-05-05T09:27:43.250Z,4.30
2023-05-05T09:30:12.186Z,5.00
2023-05-05T09:32:44.073Z,4.10
2023-05-05T09:35:14.560Z,4.90
2023-05-05T09:37:42.401Z,5.40
2023-05-05T09:40:10.698Z,4.60
2023-05-05T09:42:39.223Z,4.50
2023-05-05T09:45:27.700Z,4.50
2023-05-05T09:47:59.545Z,4.70
2023-05-05T09:50:32.720Z,4.20
2023-05-05T09:53:03.872Z,3.60
2023-05-05T09:55:32.061Z,4.70
2023-05-05T09:58:29.208Z,4.40
2023-05-05T10:00:58.017Z,4.50
2023-05-05T10:03:26.061Z,4.20
2023-05-05T10:05:55.728Z,4.50
2023-05-05T10:08:28.207Z,4.30
2023-05-05T10:11:00.969Z,4.80
2023-05-05T10:13:28.984Z,4.10
2023-05-05T10:15:57.971Z,4.10
2023-05-05T10:18:27.129Z,3.70
2023-05-05T10:20:57.450Z,4.40
2023-05-05T10:23:31.534Z,4.00
2023-05-05T10:26:01.980Z,4.30
2023-05-05T10:28:33.804Z,3.90
2023-05-05T10:31:07.602Z,4.20
2023-05-05T10:33:45.212Z,3.70
2023-05-05T10:36:13.190Z,3.60
2023-05-05T10:38:41.763Z,4.10
2023-05-05T10:41:10.212Z,3.50
2023-05-05T10:43:38.409Z,4.10
2023-05-05T10:46:06.462Z,3.90
2023-05-05T10:48:46.042Z,4.80
2023-05-05T10:51:40.109Z,3.90
2023-05-05T10:54:17.632Z,4.40
2023-05-05T10:56:46.422Z,3.90
2023-05-05T10:59:32.803Z,3.70
2023-05-05T11:02:00.587Z,4.10
2023-05-05T11:04:28.377Z,3.90
2023-05-05T11:07:08.782Z,3.30
2023-05-05T11:09:53.918Z,3.60
2023-05-05T11:12:22.053Z,3.90
2023-05-05T11:15:09.722Z,3.30
2023-05-05T11:17:47.133Z,3.30
2023-05-05T11:20:15.301Z,4.60
2023-05-05T11:23:01.830Z,4.40
2023-05-05T11:25:36.208Z,4.50
2023-05-05T11:28:14.214Z,4.00
2023-05-05T11:30:58.167Z,4.30
2023-05-05T11:33:27.040Z,4.50
2023-05-05T11:35:58.660Z,3.20
2023-05-05T11:38:38.809Z,4.10
2023-05-05T11:41:13.522Z,4.90
2023-05-05T11:43:44.154Z,3.60
2023-05-05T11:46:12.909Z,3.90
2023-05-05T11:48:51.780Z,4.10
2023-05-05T11:51:19.667Z,4.60
2023-05-05T11:53:48.038Z,4.20
2023-05-05T11:56:19.248Z,4.10
2023-05-05T11:58:47.804Z,4.30
2023-05-05T12:01:18.818Z,4.50
2023-05-05T12:03:46.715Z,5.00
2023-05-05T12:06:14.581Z,4.10
2023-05-05T12:08:42.464Z,3.90
2023-05-05T12:11:11.162Z,4.50
2023-05-05T12:13:39.304Z,3.70
2023-05-05T12:16:11.146Z,4.90
2023-05-05T12:18:39.605Z,4.30
2023-05-05T12:21:19.365Z,4.00
2023-05-05T12:23:52.825Z,4.10
2023-05-05T12:26:28.036Z,3.70
2023-05-05T12:28:56.445Z,4.50
2023-05-05T12:31:44.491Z,3.50
2023-05-05T12:34:12.762Z,4.50
2023-05-05T12:36:41.654Z,3.90
2023-05-05T12:39:09.408Z,4.10
2023-05-05T12:41:37.173Z,5.30
2023-05-05T12:44:05.308Z,4.40
2023-05-05T12:46:44.813Z,4.70
2023-05-05T12:49:12.839Z,4.10
2023-05-05T12:51:52.800Z,5.00
2023-05-05T12:54:20.726Z,4.00
2023-05-05T12:56:48.593Z,4.40
2023-05-05T12:59:22.294Z,4.00
2023-05-05T13:01:50.622Z,3.40
2023-05-05T13:04:19.217Z,3.80
2023-05-05T13:06:48.317Z,3.90
2023-05-05T13:09:26.520Z,4.00
2023-05-05T13:11:54.816Z,3.60
2023-05-05T13:14:23.346Z,3.30
2023-05-05T13:16:51.189Z,4.00
2023-05-05T13:19:19.255Z,4.20
2023-05-05T13:21:47.072Z,4.10
2023-05-05T13:24:25.988Z,4.10
2023-05-05T13:26:59.371Z,4.30
2023-05-05T13:29:31.407Z,4.30
2023-05-05T13:32:00.135Z,4.40
2023-05-05T13:34:28.364Z,4.40
2023-05-05T13:36:56.772Z,4.10
2023-05-05T13:39:24.586Z,4.50
2023-05-05T13:41:52.611Z,3.90
2023-05-05T13:44:20.726Z,4.50
2023-05-05T13:46:48.560Z,4.60
2023-05-05T13:49:16.431Z,4.50
2023-05-05T13:51:45.251Z,4.90
2023-05-05T13:54:13.270Z,4.70
2023-05-05T13:56:41.060Z,6.00
2023-05-05T13:59:09.330Z,5.00
2023-05-05T14:01:37.577Z,4.20
2023-05-05T14:04:16.133Z,4.70
2023-05-05T14:06:43.991Z,5.40
2023-05-05T14:09:11.840Z,4.80
2023-05-05T14:11:48.789Z,4.30
2023-05-05T14:14:16.571Z,4.50
2023-05-05T14:16:44.489Z,4.70
2023-05-05T14:19:12.352Z,5.00
2023-05-05T14:21:40.044Z,4.70
2023-05-05T14:24:08.114Z,4.40
2023-05-05T14:26:35.918Z,3.60
2023-05-05T14:29:04.004Z,4.60
2023-05-05T14:31:31.853Z,4.10
2023-05-05T14:33:59.689Z,4.10
2023-05-05T14:36:27.659Z,4.70
2023-05-05T14:38:55.506Z,4.10
2023-05-05T14:41:23.876Z,4.50
2023-05-05T14:43:51.780Z,4.30
2023-05-05T14:46:19.899Z,4.30
2023-05-05T14:48:48.473Z,4.60
2023-05-05T14:51:16.483Z,5.40
2023-05-05T14:53:46.607Z,4.80
2023-05-05T14:56:14.738Z,3.60
2023-05-05T14:58:43.090Z,4.70
2023-05-05T15:01:10.927Z,5.10
2023-05-05T15:03:38.925Z,4.30
2023-05-05T15:06:10.060Z,4.50
2023-05-05T15:08:39.113Z,3.50
2023-05-05T15:11:07.110Z,4.60
2023-05-05T15:13:35.541Z,4.90
2023-05-05T15:16:03.487Z,5.20
2023-05-05T15:18:31.402Z,4.20
2023-05-05T15:20:59.635Z,4.50
2023-05-05T15:23:27.432Z,5.10
2023-05-05T15:25:55.125Z,3.90
2023-05-05T15:28:22.951Z,4.10
2023-05-05T15:30:50.748Z,4.30
2023-05-05T15:33:18.461Z,6.20
2023-05-05T15:35:46.396Z,4.60
2023-05-05T15:38:14.282Z,3.90
2023-05-05T15:40:44.232Z,4.20
2023-05-05T15:43:12.498Z,4.30
2023-05-05T15:45:41.568Z,4.60
2023-05-05T15:48:09.414Z,4.90
2023-05-05T15:50:37.255Z,5.10
2023-05-05T15:53:07.791Z,4.30
2023-05-05T15:55:35.954Z,5.40
2023-05-05T15:58:03.746Z,4.40
2023-05-05T16:00:31.518Z,5.00
2023-05-05T16:02:59.483Z,4.90
2023-05-05T16:05:27.523Z,10.90
2023-05-05T16:07:55.479Z,8.70
2023-05-05T16:10:23.398Z,6.10
2023-05-05T16:12:52.186Z,4.40
2023-05-05T16:15:20.085Z,6.60
2023-05-05T16:17:48.002Z,4.50
2023-05-05T16:20:15.844Z,4.00
2023-05-05T16:22:43.703Z,3.90
2023-05-05T16:25:11.543Z,3.90
2023-05-05T16:27:39.420Z,3.60
2023-05-05T16:30:08.821Z,3.40
2023-05-05T16:32:36.640Z,5.00
2023-05-05T16:35:04.634Z,4.40
2023-05-05T16:37:32.466Z,4.10
2023-05-05T16:40:01.347Z,4.00
2023-05-05T16:42:29.110Z,3.50
2023-05-05T16:44:56.850Z,3.30
2023-05-05T16:47:25.584Z,2.80
2023-05-05T16:49:53.575Z,3.50
2023-05-05T16:52:21.304Z,4.20
2023-05-05T16:54:55.396Z,4.40
2023-05-05T16:57:23.556Z,6.30
2023-05-05T16:59:51.516Z,4.80
2023-05-05T17:02:19.496Z,4.80
2023-05-05T17:04:50.359Z,5.70
2023-05-05T17:07:18.187Z,4.20
2023-05-05T17:09:46.042Z,4.90
2023-05-05T17:12:14.148Z,4.00
2023-05-05T17:14:42.141Z,4.40
2023-05-05T17:17:09.935Z,3.90
2023-05-05T17:19:37.735Z,4.70
2023-05-05T17:22:05.925Z,5.00
2023-05-05T17:24:33.722Z,4.50
2023-05-05T17:27:02.171Z,5.40
2023-05-05T17:29:30.000Z,5.10
2023-05-05T17:31:57.798Z,5.30
2023-05-05T17:34:25.733Z,4.40
2023-05-05T17:36:53.434Z,4.80
2023-05-05T17:39:21.369Z,4.70
2023-05-05T17:41:49.121Z,4.00
2023-05-05T17:44:17.118Z,4.00
2023-05-05T17:46:45.171Z,4.70
2023-05-05T17:49:13.487Z,5.30
2023-05-05T17:51:41.588Z,4.70
2023-05-05T17:54:11.619Z,4.90
2023-05-05T17:56:39.693Z,4.40
2023-05-05T17:59:07.816Z,5.20
2023-05-05T18:01:35.766Z,6.00
2023-05-05T18:04:05.373Z,6.00
2023-05-05T18:06:33.169Z,5.80
2023-05-05T18:09:01.044Z,5.20
2023-05-05T18:11:30.939Z,4.50
2023-05-05T18:13:58.851Z,4.00
2023-05-05T18:16:26.635Z,4.90
2023-05-05T18:18:54.465Z,4.20
2023-05-05T18:21:22.566Z,5.00
2023-05-05T18:23:50.412Z,5.00
2023-05-05T18:26:18.235Z,6.10
2023-05-05T18:28:46.015Z,6.10
2023-05-05T18:31:13.930Z,5.90
2023-05-05T18:33:41.688Z,4.40
2023-05-05T18:36:09.443Z,5.70
2023-05-05T18:38:37.187Z,5.10
2023-05-05T18:41:05.035Z,5.40
2023-05-05T18:43:32.926Z,4.60
2023-05-05T18:46:01.082Z,4.40
2023-05-05T18:48:29.454Z,5.00
2023-05-05T18:51:03.933Z,4.50
2023-05-05T18:53:31.998Z,4.40
2023-05-05T18:56:00.327Z,4.30
2023-05-05T18:58:28.220Z,4.90
2023-05-05T19:00:56.726Z,4.80
2023-05-05T19:03:24.506Z,5.60
2023-05-05T19:05:52.284Z,6.40
2023-05-05T19:08:19.947Z,5.20
2023-05-05T19:10:47.661Z,5.60
2023-05-05T19:13:15.577Z,5.50
2023-05-05T19:15:43.481Z,4.40
2023-05-05T19:18:11.551Z,4.40
2023-05-05T19:20:42.843Z,3.80
2023-05-05T19:23:11.249Z,4.50
2023-05-05T19:25:39.916Z,3.40
2023-05-05T19:28:07.726Z,4.00
2023-05-05T19:30:36.038Z,3.60
2023-05-05T19:33:03.902Z,3.40
2023-05-05T19:35:31.663Z,3.60
2023-05-05T19:37:59.729Z,3.40
2023-05-05T19:40:27.514Z,3.40
2023-05-05T19:42:56.269Z,3.20
2023-05-05T19:45:24.166Z,3.80
2023-05-05T19:47:52.103Z,3.20
2023-05-05T19:50:20.061Z,3.70
2023-05-05T19:52:47.802Z,4.10
2023-05-05T19:55:15.860Z,3.90
2023-05-05T19:57:43.922Z,3.70
2023-05-05T20:00:12.029Z,3.40
2023-05-05T20:02:40.097Z,3.10
2023-05-05T20:05:08.121Z,3.10
2023-05-05T20:07:36.208Z,4.50
2023-05-05T20:10:04.221Z,3.00
2023-05-05T20:12:32.062Z,3.50
2023-05-05T20:14:59.939Z,2.90
2023-05-05T20:17:27.780Z,2.90
2023-05-05T20:19:55.856Z,3.30
2023-05-05T20:22:23.835Z,3.40
2023-05-05T20:24:51.758Z,3.50
2023-05-05T20:27:20.999Z,3.20
2023-05-05T20:29:48.759Z,2.80
2023-05-05T20:32:20.572Z,3.30
2023-05-05T20:34:48.545Z,3.30
2023-05-05T20:37:16.509Z,3.40
2023-05-05T20:39:44.359Z,3.30
2023-05-05T20:42:12.199Z,2.90
2023-05-05T20:44:40.190Z,3.50
2023-05-05T20:47:07.979Z,3.10
2023-05-05T20:49:35.927Z,3.00
2023-05-05T20:52:04.056Z,3.40
2023-05-05T20:54:33.473Z,3.60
2023-05-05T20:57:02.909Z,3.10
2023-05-05T20:59:30.766Z,3.40
2023-05-05T21:01:58.704Z,3.20
2023-05-05T21:04:26.573Z,4.20
2023-05-05T21:06:54.427Z,3.70
2023-05-05T21:09:23.369Z,3.80
2023-05-05T21:11:51.407Z,3.40
2023-05-05T21:14:19.369Z,3.80
2023-05-05T21:16:48.283Z,3.40
2023-05-05T21:19:16.453Z,3.00
2023-05-05T21:21:44.406Z,3.90
2023-05-05T21:24:13.091Z,3.20
2023-05-05T21:26:44.713Z,3.30
2023-05-05T21:29:12.496Z,3.10
2023-05-05T21:31:40.583Z,3.00
2023-05-05T21:34:08.598Z,3.30
2023-05-05T21:36:37.176Z,2.80
2023-05-05T21:39:05.038Z,3.10
2023-05-05T21:41:32.822Z,2.70
2023-05-05T21:44:00.833Z,2.70
2023-05-05T21:46:28.579Z,3.20
2023-05-05T21:48:56.364Z,3.40
2023-05-05T21:51:24.201Z,3.40
2023-05-05T21:53:52.043Z,3.20
2023-05-05T21:56:19.854Z,3.30
2023-05-05T21:58:47.891Z,3.50
2023-05-05T22:01:15.810Z,3.20
2023-05-05T22:03:44.270Z,3.40
2023-05-05T22:06:12.421Z,2.90
2023-05-05T22:08:40.269Z,3.50
2023-05-05T22:11:08.175Z,3.30
2023-05-05T22:13:36.118Z,3.20
2023-05-05T22:16:05.865Z,3.60
2023-05-05T22:18:33.702Z,3.80
2023-05-05T22:21:01.788Z,3.50
2023-05-05T22:23:29.594Z,3.70
2023-05-05T22:25:57.553Z,3.90
2023-05-05T22:28:25.361Z,3.60
2023-05-05T22:30:53.082Z,3.00
2023-05-05T22:33:20.837Z,3.70
2023-05-05T22:35:48.746Z,4.10
2023-05-05T22:38:16.593Z,3.40
2023-05-05T22:40:44.537Z,3.50
2023-05-05T22:43:12.306Z,3.60
2023-05-05T22:45:40.113Z,3.90
2023-05-05T22:48:07.909Z,3.50
2023-05-05T22:50:35.731Z,3.40
2023-05-05T22:53:03.721Z,2.90
2023-05-05T22:55:31.545Z,3.10
2023-05-05T22:57:59.293Z,3.20
2023-05-05T23:00:27.155Z,3.00
2023-05-05T23:02:55.083Z,3.30
2023-05-05T23:05:22.934Z,3.60
2023-05-05T23:07:50.946Z,3.60
2023-05-05T23:10:18.742Z,3.50
2023-05-05T23:12:46.552Z,3.60
2023-05-05T23:15:14.266Z,4.50
2023-05-05T23:17:42.084Z,3.20
2023-05-05T23:20:12.034Z,3.40
2023-05-05T23:22:40.014Z,3.30
2023-05-05T23:25:08.416Z,3.20
2023-05-05T23:27:36.412Z,3.70
2023-05-05T23:30:04.360Z,3.10
2023-05-05T23:32:32.218Z,3.90
2023-05-05T23:35:00.113Z,3.50
2023-05-05T23:37:27.918Z,4.20
2023-05-05T23:39:56.251Z,3.40
2023-05-05T23:42:24.462Z,3.60
2023-05-05T23:44:52.241Z,3.40
2023-05-05T23:47:27.435Z,3.70
2023-05-05T23:49:55.237Z,3.60
2023-05-05T23:52:23.013Z,3.90
2023-05-05T23:54:51.103Z,3.90
2023-05-05T23:57:19.114Z,3.40
2023-05-05T23:59:47.115Z,4.20
